sensor_id;sensor_type;location;lat;lon;timestamp;pressure;altitude;pressure_sealevel;temperature;humidity
79703;BME280;69172;52.352;5.006;2023-06-22T00:00:59;101996.19;;;18.79;78.21
79703;BME280;69172;52.352;5.006;2023-06-22T00:03:26;101993.56;;;18.79;78.92
79703;BME280;69172;52.352;5.006;2023-06-22T00:05:52;101990.91;;;18.78;79.36
79703;BME280;69172;52.352;5.006;2023-06-22T00:08:23;102001.34;;;18.78;79.74
79703;BME280;69172;52.352;5.006;2023-06-22T00:10:48;101997.88;;;18.79;80.00
79703;BME280;69172;52.352;5.006;2023-06-22T00:13:14;102001.44;;;18.81;80.52
79703;BME280;69172;52.352;5.006;2023-06-22T00:15:41;102004.13;;;18.82;80.95
79703;BME280;69172;52.352;5.006;2023-06-22T00:18:07;101999.94;;;18.86;81.11
79703;BME280;69172;52.352;5.006;2023-06-22T00:20:33;101995.59;;;18.86;81.44
79703;BME280;69172;52.352;5.006;2023-06-22T00:23:02;102001.56;;;18.84;81.53
79703;BME280;69172;52.352;5.006;2023-06-22T00:25:31;102004.25;;;18.85;82.03
79703;BME280;69172;52.352;5.006;2023-06-22T00:27:57;102002.19;;;18.78;82.63
79703;BME280;69172;52.352;5.006;2023-06-22T00:30:22;101999.59;;;18.78;82.90
79703;BME280;69172;52.352;5.006;2023-06-22T00:32:47;102003.09;;;18.79;83.29
79703;BME280;69172;52.352;5.006;2023-06-22T00:35:13;102005.88;;;18.83;83.14
79703;BME280;69172;52.352;5.006;2023-06-22T00:37:39;102004.75;;;18.77;83.59
79703;BME280;69172;52.352;5.006;2023-06-22T00:40:08;102002.06;;;18.75;83.99
79703;BME280;69172;52.352;5.006;2023-06-22T00:42:36;102005.31;;;18.70;83.02
79703;BME280;69172;52.352;5.006;2023-06-22T00:45:02;101999.41;;;18.74;83.25
79703;BME280;69172;52.352;5.006;2023-06-22T00:47:27;101999.38;;;18.72;83.81
79703;BME280;69172;52.352;5.006;2023-06-22T00:49:53;102001.75;;;18.68;84.42
79703;BME280;69172;52.352;5.006;2023-06-22T00:52:22;102001.59;;;18.63;84.53
79703;BME280;69172;52.352;5.006;2023-06-22T00:54:51;101992.06;;;18.64;84.63
79703;BME280;69172;52.352;5.006;2023-06-22T00:57:18;101987.97;;;18.70;84.38
79703;BME280;69172;52.352;5.006;2023-06-22T00:59:45;101983.00;;;18.76;84.32
79703;BME280;69172;52.352;5.006;2023-06-22T01:02:11;101982.97;;;18.75;84.51
79703;BME280;69172;52.352;5.006;2023-06-22T01:04:38;101987.16;;;18.71;84.95
79703;BME280;69172;52.352;5.006;2023-06-22T01:10:10;101991.47;;;18.71;86.11
79703;BME280;69172;52.352;5.006;2023-06-22T01:12:43;101985.78;;;18.59;85.48
79703;BME280;69172;52.352;5.006;2023-06-22T01:15:33;101977.75;;;18.54;85.74
79703;BME280;69172;52.352;5.006;2023-06-22T01:18:00;101982.97;;;18.54;86.36
79703;BME280;69172;52.352;5.006;2023-06-22T01:20:29;101982.19;;;18.57;86.52
79703;BME280;69172;52.352;5.006;2023-06-22T01:23:21;101975.91;;;18.52;86.40
79703;BME280;69172;52.352;5.006;2023-06-22T01:25:59;101973.00;;;18.45;86.83
79703;BME280;69172;52.352;5.006;2023-06-22T01:28:50;101977.25;;;18.43;87.48
79703;BME280;69172;52.352;5.006;2023-06-22T01:31:18;101972.00;;;18.42;87.66
79703;BME280;69172;52.352;5.006;2023-06-22T01:33:57;101973.53;;;18.37;88.10
79703;BME280;69172;52.352;5.006;2023-06-22T01:36:24;101969.00;;;18.33;88.49
79703;BME280;69172;52.352;5.006;2023-06-22T01:38:51;101970.72;;;18.32;88.38
79703;BME280;69172;52.352;5.006;2023-06-22T01:41:18;101969.91;;;18.33;88.87
79703;BME280;69172;52.352;5.006;2023-06-22T01:43:45;101973.53;;;18.37;88.78
79703;BME280;69172;52.352;5.006;2023-06-22T01:46:11;101972.00;;;18.42;88.50
79703;BME280;69172;52.352;5.006;2023-06-22T01:48:38;101963.13;;;18.37;88.42
79703;BME280;69172;52.352;5.006;2023-06-22T01:51:04;101982.56;;;18.45;88.88
79703;BME280;69172;52.352;5.006;2023-06-22T01:53:30;101984.47;;;18.49;88.04
79703;BME280;69172;52.352;5.006;2023-06-22T01:55:56;101971.47;;;18.49;87.17
79703;BME280;69172;52.352;5.006;2023-06-22T01:58:25;101966.09;;;18.46;86.08
79703;BME280;69172;52.352;5.006;2023-06-22T02:01:00;101970.47;;;18.47;85.51
79703;BME280;69172;52.352;5.006;2023-06-22T02:03:35;101974.78;;;18.47;85.14
79703;BME280;69172;52.352;5.006;2023-06-22T02:06:14;101977.63;;;18.51;85.37
79703;BME280;69172;52.352;5.006;2023-06-22T02:08:47;101973.25;;;18.50;85.41
79703;BME280;69172;52.352;5.006;2023-06-22T02:11:14;101964.47;;;18.48;85.32
79703;BME280;69172;52.352;5.006;2023-06-22T02:13:42;101967.06;;;18.48;85.24
79703;BME280;69172;52.352;5.006;2023-06-22T02:16:12;101964.53;;;18.50;84.88
79703;BME280;69172;52.352;5.006;2023-06-22T02:18:37;101966.25;;;18.49;85.02
79703;BME280;69172;52.352;5.006;2023-06-22T02:21:05;101965.28;;;18.47;85.02
79703;BME280;69172;52.352;5.006;2023-06-22T02:23:30;101960.88;;;18.46;85.87
79703;BME280;69172;52.352;5.006;2023-06-22T02:25:58;101954.84;;;18.47;85.47
79703;BME280;69172;52.352;5.006;2023-06-22T02:28:23;101952.16;;;18.45;85.27
79703;BME280;69172;52.352;5.006;2023-06-22T02:30:49;101953.06;;;18.46;85.30
79703;BME280;69172;52.352;5.006;2023-06-22T02:33:14;101956.50;;;18.45;85.39
79703;BME280;69172;52.352;5.006;2023-06-22T02:35:39;101955.53;;;18.43;85.71
79703;BME280;69172;52.352;5.006;2023-06-22T02:38:10;101956.44;;;18.43;85.80
79703;BME280;69172;52.352;5.006;2023-06-22T02:40:35;101944.97;;;18.40;85.81
79703;BME280;69172;52.352;5.006;2023-06-22T02:43:01;101944.88;;;18.37;85.81
79703;BME280;69172;52.352;5.006;2023-06-22T02:45:28;101948.44;;;18.39;86.31
79703;BME280;69172;52.352;5.006;2023-06-22T02:47:53;101950.09;;;18.37;86.23
79703;BME280;69172;52.352;5.006;2023-06-22T02:50:19;101949.19;;;18.36;86.08
79703;BME280;69172;52.352;5.006;2023-06-22T02:52:44;101951.09;;;18.40;86.41
79703;BME280;69172;52.352;5.006;2023-06-22T02:55:09;101949.38;;;18.41;86.23
79703;BME280;69172;52.352;5.006;2023-06-22T02:57:35;101950.19;;;18.40;86.17
79703;BME280;69172;52.352;5.006;2023-06-22T03:00:03;101947.66;;;18.41;86.59
79703;BME280;69172;52.352;5.006;2023-06-22T03:02:41;101944.03;;;18.38;86.38
79703;BME280;69172;52.352;5.006;2023-06-22T03:05:07;101937.16;;;18.40;86.70
79703;BME280;69172;52.352;5.006;2023-06-22T03:07:40;101944.28;;;18.44;86.82
79703;BME280;69172;52.352;5.006;2023-06-22T03:10:06;101945.41;;;18.49;87.12
79703;BME280;69172;52.352;5.006;2023-06-22T03:12:32;101940.16;;;18.48;87.15
79703;BME280;69172;52.352;5.006;2023-06-22T03:14:57;101938.41;;;18.48;87.83
79703;BME280;69172;52.352;5.006;2023-06-22T03:17:23;101934.09;;;18.49;87.52
79703;BME280;69172;52.352;5.006;2023-06-22T03:19:48;101932.47;;;18.51;87.36
79703;BME280;69172;52.352;5.006;2023-06-22T03:22:14;101938.50;;;18.50;87.47
79703;BME280;69172;52.352;5.006;2023-06-22T03:24:40;101941.91;;;18.49;87.33
79703;BME280;69172;52.352;5.006;2023-06-22T03:27:05;101934.09;;;18.49;86.49
79703;BME280;69172;52.352;5.006;2023-06-22T03:29:31;101934.16;;;18.50;87.37
79703;BME280;69172;52.352;5.006;2023-06-22T03:31:56;101939.22;;;18.47;87.46
79703;BME280;69172;52.352;5.006;2023-06-22T03:34:22;101951.56;;;18.51;88.01
79703;BME280;69172;52.352;5.006;2023-06-22T03:36:47;101939.44;;;18.52;87.43
79703;BME280;69172;52.352;5.006;2023-06-22T03:39:13;101934.44;;;18.56;89.54
79703;BME280;69172;52.352;5.006;2023-06-22T03:41:38;101929.13;;;18.55;89.93
79703;BME280;69172;52.352;5.006;2023-06-22T03:44:04;101929.91;;;18.52;90.52
79703;BME280;69172;52.352;5.006;2023-06-22T03:46:29;101933.53;;;18.56;90.75
79703;BME280;69172;52.352;5.006;2023-06-22T03:48:55;101934.16;;;18.50;90.74
79703;BME280;69172;52.352;5.006;2023-06-22T03:51:20;101929.59;;;18.46;90.72
79703;BME280;69172;52.352;5.006;2023-06-22T03:53:46;101922.66;;;18.45;91.59
79703;BME280;69172;52.352;5.006;2023-06-22T03:56:11;101924.28;;;18.43;91.73
79703;BME280;69172;52.352;5.006;2023-06-22T03:58:36;101930.25;;;18.40;92.19
79703;BME280;69172;52.352;5.006;2023-06-22T04:01:08;101935.31;;;18.37;91.95
79703;BME280;69172;52.352;5.006;2023-06-22T04:03:37;101937.81;;;18.34;91.85
79703;BME280;69172;52.352;5.006;2023-06-22T04:06:02;101928.16;;;18.32;91.23
79703;BME280;69172;52.352;5.006;2023-06-22T04:08:28;101933.44;;;18.33;90.90
79703;BME280;69172;52.352;5.006;2023-06-22T04:10:53;101918.72;;;18.34;88.54
79703;BME280;69172;52.352;5.006;2023-06-22T04:13:18;101931.09;;;18.39;86.03
79703;BME280;69172;52.352;5.006;2023-06-22T04:15:44;101921.78;;;18.46;85.06
79703;BME280;69172;52.352;5.006;2023-06-22T04:18:10;101922.09;;;18.52;84.58
79703;BME280;69172;52.352;5.006;2023-06-22T04:20:35;101912.69;;;18.56;83.98
79703;BME280;69172;52.352;5.006;2023-06-22T04:23:01;101917.19;;;18.60;83.92
79703;BME280;69172;52.352;5.006;2023-06-22T04:25:27;101918.19;;;18.63;83.27
79703;BME280;69172;52.352;5.006;2023-06-22T04:27:52;101914.00;;;18.67;83.41
79703;BME280;69172;52.352;5.006;2023-06-22T04:30:18;101910.69;;;18.71;82.47
79703;BME280;69172;52.352;5.006;2023-06-22T04:32:44;101918.91;;;18.81;82.01
79703;BME280;69172;52.352;5.006;2023-06-22T04:35:10;101919.03;;;18.84;82.50
79703;BME280;69172;52.352;5.006;2023-06-22T04:37:36;101918.47;;;18.91;82.00
79703;BME280;69172;52.352;5.006;2023-06-22T04:40:01;101917.69;;;18.94;82.10
79703;BME280;69172;52.352;5.006;2023-06-22T04:42:29;101915.97;;;18.94;82.32
79703;BME280;69172;52.352;5.006;2023-06-22T04:44:55;101914.38;;;18.98;82.04
79703;BME280;69172;52.352;5.006;2023-06-22T04:47:21;101923.31;;;19.05;81.57
79703;BME280;69172;52.352;5.006;2023-06-22T04:49:46;101920.94;;;19.11;81.44
79703;BME280;69172;52.352;5.006;2023-06-22T04:52:13;101917.66;;;19.16;81.58
79703;BME280;69172;52.352;5.006;2023-06-22T04:54:40;101919.69;;;19.23;81.88
79703;BME280;69172;52.352;5.006;2023-06-22T04:57:13;101920.72;;;19.27;82.28
79703;BME280;69172;52.352;5.006;2023-06-22T04:59:39;101928.69;;;19.31;82.58
79703;BME280;69172;52.352;5.006;2023-06-22T05:02:07;101922.97;;;19.40;82.57
79703;BME280;69172;52.352;5.006;2023-06-22T05:04:32;101916.13;;;19.43;81.71
79703;BME280;69172;52.352;5.006;2023-06-22T05:06:59;101916.31;;;19.48;81.73
79703;BME280;69172;52.352;5.006;2023-06-22T05:09:25;101912.50;;;19.62;81.05
79703;BME280;69172;52.352;5.006;2023-06-22T05:11:51;101913.66;;;19.70;81.59
79703;BME280;69172;52.352;5.006;2023-06-22T05:14:17;101918.09;;;19.73;81.22
79703;BME280;69172;52.352;5.006;2023-06-22T05:16:44;101919.13;;;19.78;81.59
79703;BME280;69172;52.352;5.006;2023-06-22T05:19:10;101928.06;;;19.84;81.82
79703;BME280;69172;52.352;5.006;2023-06-22T05:21:35;101922.94;;;19.87;81.49
79703;BME280;69172;52.352;5.006;2023-06-22T05:24:01;101921.19;;;19.86;82.21
79703;BME280;69172;52.352;5.006;2023-06-22T05:26:29;101913.41;;;19.88;81.89
79703;BME280;69172;52.352;5.006;2023-06-22T05:28:54;101919.50;;;19.88;81.21
79703;BME280;69172;52.352;5.006;2023-06-22T05:31:20;101911.72;;;19.90;81.41
79703;BME280;69172;52.352;5.006;2023-06-22T05:33:46;101909.22;;;19.93;81.39
79703;BME280;69172;52.352;5.006;2023-06-22T05:36:12;101906.69;;;19.94;81.47
79703;BME280;69172;52.352;5.006;2023-06-22T05:38:38;101909.47;;;20.00;81.23
79703;BME280;69172;52.352;5.006;2023-06-22T05:41:05;101907.94;;;20.05;81.63
79703;BME280;69172;52.352;5.006;2023-06-22T05:43:30;101916.81;;;20.10;82.13
79703;BME280;69172;52.352;5.006;2023-06-22T05:45:56;101914.31;;;20.13;82.00
79703;BME280;69172;52.352;5.006;2023-06-22T05:48:22;101911.06;;;20.20;80.75
79703;BME280;69172;52.352;5.006;2023-06-22T05:50:47;101911.34;;;20.28;80.69
79703;BME280;69172;52.352;5.006;2023-06-22T05:53:13;101909.66;;;20.30;81.10
79703;BME280;69172;52.352;5.006;2023-06-22T05:55:38;101918.66;;;20.38;81.12
79703;BME280;69172;52.352;5.006;2023-06-22T05:58:03;101914.50;;;20.45;80.16
79703;BME280;69172;52.352;5.006;2023-06-22T06:00:29;101929.28;;;20.44;80.69
79703;BME280;69172;52.352;5.006;2023-06-22T06:02:55;101927.44;;;20.40;80.33
79703;BME280;69172;52.352;5.006;2023-06-22T06:05:20;101932.78;;;20.43;79.90
79703;BME280;69172;52.352;5.006;2023-06-22T06:07:46;101930.94;;;20.41;79.59
79703;BME280;69172;52.352;5.006;2023-06-22T06:10:12;101929.41;;;20.47;79.65
79703;BME280;69172;52.352;5.006;2023-06-22T06:12:37;101922.69;;;20.55;79.41
79703;BME280;69172;52.352;5.006;2023-06-22T06:15:04;101929.66;;;20.55;78.89
79703;BME280;69172;52.352;5.006;2023-06-22T06:17:30;101930.53;;;20.55;79.60
79703;BME280;69172;52.352;5.006;2023-06-22T06:19:55;101921.19;;;20.62;78.12
79703;BME280;69172;52.352;5.006;2023-06-22T06:22:21;101923.72;;;20.60;78.35
79703;BME280;69172;52.352;5.006;2023-06-22T06:24:49;101921.28;;;20.65;78.37
79703;BME280;69172;52.352;5.006;2023-06-22T06:27:15;101922.34;;;20.71;78.03
79703;BME280;69172;52.352;5.006;2023-06-22T06:29:40;101910.16;;;20.72;78.11
79703;BME280;69172;52.352;5.006;2023-06-22T06:32:06;101913.00;;;20.79;77.60
79703;BME280;69172;52.352;5.006;2023-06-22T06:34:31;101917.41;;;20.81;77.34
79703;BME280;69172;52.352;5.006;2023-06-22T06:36:57;101907.19;;;20.88;77.92
79703;BME280;69172;52.352;5.006;2023-06-22T06:39:22;101908.97;;;20.89;77.43
79703;BME280;69172;52.352;5.006;2023-06-22T06:41:48;101911.69;;;20.92;77.33
79703;BME280;69172;52.352;5.006;2023-06-22T06:44:13;101919.84;;;21.03;76.72
79703;BME280;69172;52.352;5.006;2023-06-22T06:46:39;101916.59;;;21.10;76.50
79703;BME280;69172;52.352;5.006;2023-06-22T06:49:04;101916.75;;;21.14;76.12
79703;BME280;69172;52.352;5.006;2023-06-22T06:51:30;101920.56;;;21.25;75.50
79703;BME280;69172;52.352;5.006;2023-06-22T06:53:55;101917.94;;;21.25;75.84
79703;BME280;69172;52.352;5.006;2023-06-22T06:56:20;101909.03;;;21.19;76.84
79703;BME280;69172;52.352;5.006;2023-06-22T06:58:46;101915.31;;;21.25;76.05
79703;BME280;69172;52.352;5.006;2023-06-22T07:01:14;101913.47;;;21.21;76.31
79703;BME280;69172;52.352;5.006;2023-06-22T07:03:39;101912.25;;;21.39;74.57
79703;BME280;69172;52.352;5.006;2023-06-22T07:06:05;101905.22;;;21.38;74.66
79703;BME280;69172;52.352;5.006;2023-06-22T07:08:30;101901.84;;;21.42;75.47
79703;BME280;69172;52.352;5.006;2023-06-22T07:10:56;101904.63;;;21.48;74.00
79703;BME280;69172;52.352;5.006;2023-06-22T07:13:21;101906.59;;;21.55;73.63
79703;BME280;69172;52.352;5.006;2023-06-22T07:15:48;101902.19;;;21.54;73.77
79703;BME280;69172;52.352;5.006;2023-06-22T07:18:13;101897.78;;;21.53;73.81
79703;BME280;69172;52.352;5.006;2023-06-22T07:20:39;101899.53;;;21.52;74.84
79703;BME280;69172;52.352;5.006;2023-06-22T07:23:07;101901.31;;;21.53;74.95
79703;BME280;69172;52.352;5.006;2023-06-22T07:25:32;101900.66;;;21.60;74.15
79703;BME280;69172;52.352;5.006;2023-06-22T07:28:00;101893.50;;;21.55;74.11
79703;BME280;69172;52.352;5.006;2023-06-22T07:30:27;101897.78;;;21.53;74.09
79703;BME280;69172;52.352;5.006;2023-06-22T07:32:53;101903.38;;;21.65;73.92
79703;BME280;69172;52.352;5.006;2023-06-22T07:35:19;101891.34;;;21.71;72.88
79703;BME280;69172;52.352;5.006;2023-06-22T07:37:44;101896.72;;;21.76;72.59
79703;BME280;69172;52.352;5.006;2023-06-22T07:40:10;101893.38;;;21.81;71.56
79703;BME280;69172;52.352;5.006;2023-06-22T07:42:36;101889.34;;;21.92;70.82
79703;BME280;69172;52.352;5.006;2023-06-22T07:45:04;101884.25;;;21.99;71.43
79703;BME280;69172;52.352;5.006;2023-06-22T07:47:31;101874.25;;;22.17;70.86
79703;BME280;69172;52.352;5.006;2023-06-22T07:50:00;101880.28;;;22.14;71.03
79703;BME280;69172;52.352;5.006;2023-06-22T07:52:27;101872.09;;;22.02;71.73
79703;BME280;69172;52.352;5.006;2023-06-22T07:54:52;101869.28;;;21.93;72.70
79703;BME280;69172;52.352;5.006;2023-06-22T07:57:18;101876.88;;;21.85;73.33
79703;BME280;69172;52.352;5.006;2023-06-22T07:59:44;101877.88;;;21.89;72.89
79703;BME280;69172;52.352;5.006;2023-06-22T08:02:09;101869.47;;;22.01;72.69
79703;BME280;69172;52.352;5.006;2023-06-22T08:04:35;101876.25;;;21.94;72.51
79703;BME280;69172;52.352;5.006;2023-06-22T08:07:01;101870.28;;;22.00;72.80
79703;BME280;69172;52.352;5.006;2023-06-22T08:09:31;101867.03;;;22.08;71.36
79703;BME280;69172;52.352;5.006;2023-06-22T08:11:57;101869.75;;;22.13;72.11
79703;BME280;69172;52.352;5.006;2023-06-22T08:14:25;101860.38;;;21.88;72.76
79703;BME280;69172;52.352;5.006;2023-06-22T08:16:51;101869.28;;;21.93;72.57
79703;BME280;69172;52.352;5.006;2023-06-22T08:19:16;101863.06;;;21.89;72.19
79703;BME280;69172;52.352;5.006;2023-06-22T08:21:43;101857.72;;;21.86;72.48
79703;BME280;69172;52.352;5.006;2023-06-22T08:24:08;101860.06;;;22.09;72.36
79703;BME280;69172;52.352;5.006;2023-06-22T08:26:34;101858.50;;;22.17;71.73
79703;BME280;69172;52.352;5.006;2023-06-22T08:29:05;101854.28;;;22.23;70.28
79703;BME280;69172;52.352;5.006;2023-06-22T08:31:31;101855.41;;;22.33;69.53
79703;BME280;69172;52.352;5.006;2023-06-22T08:33:58;101847.41;;;22.27;70.53
79703;BME280;69172;52.352;5.006;2023-06-22T08:36:24;101850.84;;;22.26;69.86
79703;BME280;69172;52.352;5.006;2023-06-22T08:38:50;101840.31;;;22.23;69.67
79703;BME280;69172;52.352;5.006;2023-06-22T08:41:17;101842.41;;;22.37;70.55
79703;BME280;69172;52.352;5.006;2023-06-22T08:43:43;101831.09;;;22.38;70.52
79703;BME280;69172;52.352;5.006;2023-06-22T08:46:09;101835.50;;;22.41;69.68
79703;BME280;69172;52.352;5.006;2023-06-22T08:48:35;101838.34;;;22.50;69.15
79703;BME280;69172;52.352;5.006;2023-06-22T08:51:00;101835.00;;;22.57;69.94
79703;BME280;69172;52.352;5.006;2023-06-22T08:53:25;101837.81;;;22.63;69.96
79703;BME280;69172;52.352;5.006;2023-06-22T08:55:51;101833.09;;;22.87;68.96
79703;BME280;69172;52.352;5.006;2023-06-22T08:58:16;101830.69;;;22.96;67.51
79703;BME280;69172;52.352;5.006;2023-06-22T09:00:43;101826.13;;;22.89;69.43
79703;BME280;69172;52.352;5.006;2023-06-22T09:03:08;101825.38;;;22.95;68.81
79703;BME280;69172;52.352;5.006;2023-06-22T09:05:34;101818.63;;;23.06;69.31
79703;BME280;69172;52.352;5.006;2023-06-22T09:07:59;101828.06;;;22.98;70.21
79703;BME280;69172;52.352;5.006;2023-06-22T09:10:25;101816.84;;;23.05;70.09
79703;BME280;69172;52.352;5.006;2023-06-22T09:12:51;101822.22;;;23.11;69.84
79703;BME280;69172;52.352;5.006;2023-06-22T09:15:17;101823.78;;;23.01;70.56
79703;BME280;69172;52.352;5.006;2023-06-22T09:17:43;101814.06;;;22.97;70.49
79703;BME280;69172;52.352;5.006;2023-06-22T09:20:09;101816.47;;;23.30;68.95
79703;BME280;69172;52.352;5.006;2023-06-22T09:22:36;101827.72;;;23.23;69.64
79703;BME280;69172;52.352;5.006;2023-06-22T09:25:02;101826.50;;;23.07;70.66
79703;BME280;69172;52.352;5.006;2023-06-22T09:27:29;101823.81;;;23.03;71.18
79703;BME280;69172;52.352;5.006;2023-06-22T09:29:54;101819.56;;;23.09;70.28
79703;BME280;69172;52.352;5.006;2023-06-22T09:32:20;101823.09;;;23.11;70.42
79703;BME280;69172;52.352;5.006;2023-06-22T09:34:45;101816.88;;;23.06;70.04
79703;BME280;69172;52.352;5.006;2023-06-22T09:37:11;101815.84;;;22.98;70.36
79703;BME280;69172;52.352;5.006;2023-06-22T09:39:36;101819.50;;;23.06;70.47
79703;BME280;69172;52.352;5.006;2023-06-22T09:42:02;101824.53;;;22.96;70.95
79703;BME280;69172;52.352;5.006;2023-06-22T09:44:27;101822.16;;;23.08;70.62
79703;BME280;69172;52.352;5.006;2023-06-22T09:46:53;101822.75;;;22.95;71.20
79703;BME280;69172;52.352;5.006;2023-06-22T09:49:18;101824.47;;;22.93;69.96
79703;BME280;69172;52.352;5.006;2023-06-22T09:51:44;101829.88;;;23.00;70.15
79703;BME280;69172;52.352;5.006;2023-06-22T09:54:09;101824.00;;;23.12;70.06
79703;BME280;69172;52.352;5.006;2023-06-22T09:56:34;101817.19;;;23.22;68.89
79703;BME280;69172;52.352;5.006;2023-06-22T09:59:00;101815.56;;;23.28;68.70
79703;BME280;69172;52.352;5.006;2023-06-22T10:01:25;101815.88;;;23.43;67.90
79703;BME280;69172;52.352;5.006;2023-06-22T10:03:52;101814.97;;;23.40;67.29
79703;BME280;69172;52.352;5.006;2023-06-22T10:06:19;101809.50;;;23.32;67.83
79703;BME280;69172;52.352;5.006;2023-06-22T10:08:45;101802.69;;;23.40;68.25
79703;BME280;69172;52.352;5.006;2023-06-22T10:11:10;101801.38;;;23.63;67.45
79703;BME280;69172;52.352;5.006;2023-06-22T10:13:36;101794.69;;;23.81;65.66
79703;BME280;69172;52.352;5.006;2023-06-22T10:16:01;101799.00;;;23.77;65.00
79703;BME280;69172;52.352;5.006;2023-06-22T10:18:27;101791.19;;;23.80;65.38
79703;BME280;69172;52.352;5.006;2023-06-22T10:20:52;101790.22;;;23.77;66.25
79703;BME280;69172;52.352;5.006;2023-06-22T10:23:19;101794.59;;;23.75;66.34
79703;BME280;69172;52.352;5.006;2023-06-22T10:25:45;101793.84;;;23.83;66.14
79703;BME280;69172;52.352;5.006;2023-06-22T10:28:10;101796.44;;;23.80;67.04
79703;BME280;69172;52.352;5.006;2023-06-22T10:30:35;101792.16;;;23.87;66.72
79703;BME280;69172;52.352;5.006;2023-06-22T10:33:01;101795.00;;;23.99;65.67
79703;BME280;69172;52.352;5.006;2023-06-22T10:35:26;101792.25;;;23.93;66.15
79703;BME280;69172;52.352;5.006;2023-06-22T10:37:52;101793.44;;;24.10;66.61
79703;BME280;69172;52.352;5.006;2023-06-22T10:40:18;101789.75;;;24.00;65.49
79703;BME280;69172;52.352;5.006;2023-06-22T10:42:44;101788.91;;;24.03;65.24
79703;BME280;69172;52.352;5.006;2023-06-22T10:45:10;101792.88;;;24.29;65.22
79703;BME280;69172;52.352;5.006;2023-06-22T10:47:36;101793.63;;;24.20;64.84
79703;BME280;69172;52.352;5.006;2023-06-22T10:50:02;101795.34;;;24.18;65.24
79703;BME280;69172;52.352;5.006;2023-06-22T10:52:28;101788.50;;;24.31;64.37
79703;BME280;69172;52.352;5.006;2023-06-22T10:54:53;101790.56;;;23.98;64.64
79703;BME280;69172;52.352;5.006;2023-06-22T10:57:18;101797.38;;;23.85;65.74
79703;BME280;69172;52.352;5.006;2023-06-22T10:59:44;101793.97;;;23.91;64.99
79703;BME280;69172;52.352;5.006;2023-06-22T11:02:09;101797.50;;;23.91;67.00
79703;BME280;69172;52.352;5.006;2023-06-22T11:04:35;101790.28;;;23.80;67.31
79703;BME280;69172;52.352;5.006;2023-06-22T11:07:00;101798.41;;;23.95;67.15
79703;BME280;69172;52.352;5.006;2023-06-22T11:09:26;101795.69;;;23.89;66.39
79703;BME280;69172;52.352;5.006;2023-06-22T11:11:52;101797.28;;;24.32;63.72
79703;BME280;69172;52.352;5.006;2023-06-22T11:14:20;101788.00;;;24.01;66.14
79703;BME280;69172;52.352;5.006;2023-06-22T11:16:46;101793.19;;;23.96;66.68
79703;BME280;69172;52.352;5.006;2023-06-22T11:19:12;101789.78;;;24.02;66.59
79703;BME280;69172;52.352;5.006;2023-06-22T11:21:38;101800.44;;;24.11;65.98
79703;BME280;69172;52.352;5.006;2023-06-22T11:24:03;101802.47;;;24.27;65.28
79703;BME280;69172;52.352;5.006;2023-06-22T11:26:29;101801.47;;;24.19;64.90
79703;BME280;69172;52.352;5.006;2023-06-22T11:28:55;101809.75;;;24.43;64.93
79703;BME280;69172;52.352;5.006;2023-06-22T11:31:20;101803.69;;;24.52;64.46
79703;BME280;69172;52.352;5.006;2023-06-22T11:33:46;101801.91;;;24.49;63.55
79703;BME280;69172;52.352;5.006;2023-06-22T11:36:12;101798.28;;;24.41;64.09
79703;BME280;69172;52.352;5.006;2023-06-22T11:38:37;101788.63;;;24.39;63.11
79703;BME280;69172;52.352;5.006;2023-06-22T11:41:05;101785.13;;;24.40;63.29
79703;BME280;69172;52.352;5.006;2023-06-22T11:43:31;101786.03;;;24.42;64.66
79703;BME280;69172;52.352;5.006;2023-06-22T11:45:56;101789.50;;;24.38;63.10
79703;BME280;69172;52.352;5.006;2023-06-22T11:48:24;101780.88;;;24.49;63.86
79703;BME280;69172;52.352;5.006;2023-06-22T11:50:49;101771.25;;;24.48;63.64
79703;BME280;69172;52.352;5.006;2023-06-22T11:53:16;101774.66;;;24.43;64.16
79703;BME280;69172;52.352;5.006;2023-06-22T11:55:43;101773.16;;;24.61;62.92
79703;BME280;69172;52.352;5.006;2023-06-22T11:58:08;101765.56;;;24.82;62.53
79703;BME280;69172;52.352;5.006;2023-06-22T12:00:34;101766.16;;;24.63;63.45
79703;BME280;69172;52.352;5.006;2023-06-22T12:02:59;101761.31;;;24.92;61.85
79703;BME280;69172;52.352;5.006;2023-06-22T12:05:24;101747.28;;;24.93;62.96
79703;BME280;69172;52.352;5.006;2023-06-22T12:07:50;101749.78;;;24.81;63.09
79703;BME280;69172;52.352;5.006;2023-06-22T12:10:18;101737.75;;;25.03;61.73
79703;BME280;69172;52.352;5.006;2023-06-22T12:12:43;101739.06;;;24.69;61.92
79703;BME280;69172;52.352;5.006;2023-06-22T12:15:09;101744.19;;;24.57;62.28
79703;BME280;69172;52.352;5.006;2023-06-22T12:17:35;101738.91;;;24.57;62.24
79703;BME280;69172;52.352;5.006;2023-06-22T12:20:00;101726.91;;;24.78;62.96
79703;BME280;69172;52.352;5.006;2023-06-22T12:22:27;101720.63;;;24.69;62.56
79703;BME280;69172;52.352;5.006;2023-06-22T12:24:52;101721.44;;;24.63;61.97
79703;BME280;69172;52.352;5.006;2023-06-22T12:27:17;101723.13;;;24.57;60.85
79703;BME280;69172;52.352;5.006;2023-06-22T12:29:46;101726.63;;;24.56;61.23
79703;BME280;69172;52.352;5.006;2023-06-22T12:32:11;101730.94;;;24.51;62.28
79703;BME280;69172;52.352;5.006;2023-06-22T12:34:42;101727.28;;;24.41;61.25
79703;BME280;69172;52.352;5.006;2023-06-22T12:37:08;101723.47;;;24.19;62.69
79703;BME280;69172;52.352;5.006;2023-06-22T12:39:33;101724.25;;;24.12;62.53
79703;BME280;69172;52.352;5.006;2023-06-22T12:41:58;101729.81;;;24.32;62.75
79703;BME280;69172;52.352;5.006;2023-06-22T12:44:24;101714.09;;;24.37;61.64
79703;BME280;69172;52.352;5.006;2023-06-22T12:46:50;101721.78;;;24.23;66.05
79703;BME280;69172;52.352;5.006;2023-06-22T12:49:15;101716.44;;;24.17;64.29